This is the latest recevied weather packets stored in our database for station/object KI4NG. If no packets are shown the sender has not sent any weather packets the latest 10 day(s).
| Time | Temp. | Humidity | Pressure | Rain* | Wind** | Luminosity | Snow |
|---|---|---|---|---|---|---|---|
| 1777592451 | 13.33° C | 58% | 1015.3 hPa | 0 mm | - | 29 W/m² | - |
| 1777592146 | 13.33° C | 58% | 1015 hPa | 0 mm | - | 30 W/m² | - |
| 1777591844 | 13.33° C | 59% | 1015.1 hPa | 0 mm | - | 32 W/m² | - |
| 1777591539 | 13.89° C | 54% | 1015.1 hPa | 0 mm | - | 34 W/m² | - |
| 1777591236 | 13.89° C | 56% | 1015.2 hPa | 0 mm | - | 37 W/m² | - |
| 1777590931 | 14.44° C | 51% | 1015.1 hPa | 0 mm | - | 84 W/m² | - |
| 1777590627 | 14.44° C | 51% | 1015.1 hPa | 0 mm | - | 63 W/m² | - |
| 1777590324 | 14.44° C | 51% | 1014.8 hPa | 0 mm | - | 52 W/m² | - |
| 1777590021 | 15° C | 55% | 1015 hPa | 0 mm | - | 56 W/m² | - |
| 1777589717 | 15° C | 54% | 1015 hPa | 0 mm | - | 79 W/m² | - |
| 1777589416 | 15.56° C | 51% | 1015.4 hPa | 0 mm | - | 74 W/m² | - |
| 1777589112 | 15.56° C | 50% | 1015.3 hPa | 0 mm | - | 232 W/m² | - |
| 1777588808 | 16.11° C | 46% | 1015.3 hPa | 0 mm | - | 239 W/m² | - |
| 1777588504 | 16.11° C | 46% | 1015.1 hPa | 0 mm | - | 252 W/m² | - |
| 1777588199 | 16.11° C | 45% | 1015.1 hPa | 0 mm | - | 278 W/m² | - |
| 1777587895 | 15.56° C | 46% | 1015.3 hPa | 0 mm | - | 265 W/m² | - |
| 1777587590 | 16.11° C | 46% | 1015.1 hPa | 0 mm | - | 285 W/m² | - |
| 1777587285 | 16.67° C | 46% | 1015.3 hPa | 0 mm | - | 337 W/m² | - |
| 1777586981 | 16.11° C | 48% | 1015.2 hPa | 0 mm | - | 354 W/m² | - |
| 1777586677 | 16.11° C | 47% | 1015.3 hPa | 0 mm | - | 158 W/m² | - |
| 1777586373 | 16.67° C | 46% | 1015.2 hPa | 0 mm | - | 392 W/m² | - |
| 1777586072 | 16.11° C | 48% | 1015.2 hPa | 0 mm | - | 403 W/m² | - |
| 1777585770 | 16.67° C | 46% | 1015.2 hPa | 0 mm | - | 416 W/m² | - |
| 1777585465 | 16.67° C | 45% | 1015.1 hPa | 0 mm | - | 423 W/m² | - |
| 1777585162 | 16.11° C | 46% | 1015 hPa | 0 mm | - | 455 W/m² | - |
* Rain latest hour (hover to see other rain measurements)
** Current wind speed in m/s (hover to see current wind gust speed)